Home > Products > Valid Products > MTR

000
SAUS44 KMRX 271817 COR
MTRGDP
METAR KGDP 271751Z AUTO 25024G29KT 10SM CLR 24/M06 A2997 RMK AO2 PK
WND 25033/1739 SLP071 T02391061 10250 20117 58005 $





000
SAUS44 KMRX 270717 COR
MTRGDP
METAR KGDP 270651Z AUTO 26025G34KT 10SM CLR 18/M12 A2992 RMK AO2 PK
WND 26038/0631 SLP048 T01781117 402890172 $





000
SAUS44 KMRX 270618 COR
MTRGDP
METAR KGDP 270551Z AUTO 27029G35KT 10SM CLR 19/M11 A2992 RMK AO2 PK
WND 28038/0458 SLP049 T01891111 10261 20189 50006 $





000
SAUS44 KMRX 270017 COR
MTRGDP
METAR KGDP 262351Z AUTO 25034G41KT 10SM CLR 26/M09 A2984 RMK AO2 PK
WND 25045/2254 SLP023 T02611094 10289 20256 55019





    US Dept of Commerce
    National Oceanic and Atmospheric Administration
    National Weather Service
    1325 East West Highway
    Silver Spring, MD 20910
    Page Author: NWS Internet Services Team
Disclaimer
Information Quality
Credits
Glossary
Privacy Policy
Freedom of Information Act (FOIA)
About Us
Career Opportunities